Time;durP1;ratioP1;P1;durP2;ratioP2;P2;SDS_P1;SDS_P2;PMS_P1;PMS_P2;Temp;Humidity;BMP_temperature;BMP_pressure;BME280_temperature;BME280_humidity;BME280_pressure;Samples;Min_cycle;Max_cycle;Signal;HPM_P1;HPM_P2
2023/12/09 00:00:56;;;;;;;;;;;;;;;-140.72;100.00;57745.25;5095065;28;19959;-73
2023/12/09 00:03:21;;;;;;;;;;;;;;;-140.72;100.00;57820.44;5098000;28;19951;-74
2023/12/09 00:05:46;;;;;;;;;;;;;;;-140.72;100.00;57777.78;5109030;28;19996;-74
2023/12/09 00:08:12;;;;;;;;;;;;;;;-140.72;100.00;57775.75;5098153;28;19943;-73
2023/12/09 00:10:37;;;;;;;;;;;;;;;-140.72;100.00;57775.75;5092923;28;19973;-73
2023/12/09 00:13:02;;;;;;;;;;;;;;;-140.72;100.00;57759.47;5101362;28;19965;-73
2023/12/09 00:15:28;;;;;;;;;;;;;;;-140.72;100.00;57755.41;5079717;28;19920;-73
2023/12/09 00:17:53;;;;;;;;;;;;;;;-140.72;100.00;57751.34;5084558;28;20084;-74
2023/12/09 00:20:18;;;;;;;;;;;;;;;-140.72;100.00;57785.91;5103214;28;20355;-74
2023/12/09 00:22:43;;;;;;;;;;;;;;;-140.72;100.00;57796.06;5088958;28;19924;-73
2023/12/09 00:25:09;;;;;;;;;;;;;;;-140.72;100.00;57802.16;5106556;28;19928;-74
2023/12/09 00:27:34;;;;;;;;;;;;;;;-140.72;100.00;57771.66;5092750;28;19958;-74
2023/12/09 00:30:00;;;;;;;;;;;;;;;-140.72;100.00;57810.28;5097692;28;19919;-73
2023/12/09 00:32:25;;;;;;;;;;;;;;;-140.72;100.00;57804.19;5089415;28;19928;-73
2023/12/09 00:34:50;;;;;;;;;;;;;;;-140.72;100.00;57804.19;5089585;28;20429;-73
2023/12/09 00:37:15;;;;;;;;;;;;;;;-140.72;100.00;57804.19;5074646;28;19924;-74
2023/12/09 00:39:41;;;;;;;;;;;;;;;-140.72;100.00;57832.63;5101789;28;19924;-74
2023/12/09 00:42:06;;;;;;;;;;;;;;;-140.72;100.00;57777.78;5101862;28;19961;-74
2023/12/09 00:44:31;;;;;;;;;;;;;;;-140.72;100.00;57824.50;5107497;28;19926;-72
2023/12/09 00:46:57;;;;;;;;;;;;;;;-140.72;100.00;57775.75;5094402;28;20445;-73
2023/12/09 00:49:22;;;;;;;;;;;;;;;-140.72;100.00;57828.56;5100900;28;19921;-73
2023/12/09 00:51:47;;;;;;;;;;;;;;;-140.72;100.00;57757.44;5078487;28;19951;-73
2023/12/09 00:54:12;;;;;;;;;;;;;;;-140.72;100.00;57804.19;5094343;28;19927;-73
2023/12/09 00:56:38;;;;;;;;;;;;;;;-140.72;100.00;57779.81;5100126;28;19960;-73
2023/12/09 00:59:03;;;;;;;;;;;;;;;-140.72;100.00;57808.25;5092728;28;19963;-74
2023/12/09 01:01:29;;;;;;;;;;;;;;;-140.72;100.00;57804.19;5091031;28;19962;-74
2023/12/09 01:03:54;;;;;;;;;;;;;;;-140.72;100.00;57781.84;5070207;28;19932;-73
2023/12/09 01:06:19;;;;;;;;;;;;;;;-140.72;100.00;57800.13;5090193;28;20279;-74
2023/12/09 01:08:44;;;;;;;;;;;;;;;-140.72;100.00;57792.00;5081174;28;20324;-73
2023/12/09 01:11:09;;;;;;;;;;;;;;;-140.72;100.00;57820.44;5092307;28;20374;-73
2023/12/09 01:13:35;;;;;;;;;;;;;;;-140.72;100.00;57812.31;5102848;28;19977;-73
2023/12/09 01:16:00;;;;;;;;;;;;;;;-140.72;100.00;57783.88;5100037;28;19920;-73
2023/12/09 01:18:25;;;;;;;;;;;;;;;-140.72;100.00;57836.69;5097382;28;19932;-72
2023/12/09 01:20:50;;;;;;;;;;;;;;;-140.72;100.00;57832.63;5096723;28;19927;-73
2023/12/09 01:23:16;;;;;;;;;;;;;;;-140.72;100.00;57832.63;5079461;28;20341;-73
2023/12/09 01:25:41;;;;;;;;;;;;;;;-140.72;100.00;57775.75;5077286;28;19952;-73
2023/12/09 01:28:06;;;;;;;;;;;;;;;-140.72;100.00;57785.91;5089301;28;20022;-73
2023/12/09 01:30:31;;;;;;;;;;;;;;;-140.72;100.00;57881.41;5097743;28;20335;-74
2023/12/09 01:32:57;;;;;;;;;;;;;;;-140.72;100.00;57836.69;5105490;28;19943;-73
2023/12/09 01:35:22;;;;;;;;;;;;;;;-140.72;100.00;57848.88;5090509;28;19924;-74
2023/12/09 01:37:47;;;;;;;;;;;;;;;-140.72;100.00;57846.84;5096375;28;19927;-73
2023/12/09 01:40:15;;;;;;;;;;;;;;;-140.72;100.00;57877.34;5089964;28;19935;-73
2023/12/09 01:42:42;;;;;;;;;;;;;;;-140.72;100.00;57877.34;5097009;28;20250;-73
2023/12/09 01:45:07;;;;;;;;;;;;;;;-140.72;100.00;57887.50;5092612;28;19921;-73
2023/12/09 01:47:32;;;;;;;;;;;;;;;-140.72;100.00;57867.16;5071583;28;19970;-73
2023/12/09 01:49:58;;;;;;;;;;;;;;;-140.72;100.00;57883.44;5084898;28;20030;-73
2023/12/09 01:52:23;;;;;;;;;;;;;;;-140.72;100.00;57926.09;5109160;28;20048;-73
2023/12/09 01:54:48;;;;;;;;;;;;;;;-140.72;100.00;57930.16;5094614;28;19920;-74
2023/12/09 01:57:14;;;;;;;;;;;;;;;-140.72;100.00;57877.34;5078088;28;19923;-74
2023/12/09 01:59:39;;;;;;;;;;;;;;;-140.72;100.00;57873.25;5077843;28;19927;-74
2023/12/09 02:02:05;;;;;;;;;;;;;;;-140.72;100.00;57861.06;5095589;28;19948;-75
2023/12/09 02:04:30;;;;;;;;;;;;;;;-140.72;100.00;57879.38;5090816;28;19920;-74
2023/12/09 02:06:55;;;;;;;;;;;;;;;-140.72;100.00;57861.06;5089073;28;19921;-74
2023/12/09 02:09:21;;;;;;;;;;;;;;;-140.72;100.00;57873.25;5094241;28;20293;-74
2023/12/09 02:11:58;;;;;;;;;;;;;;;-140.72;100.00;57863.09;5075987;28;19988;-74
2023/12/09 02:14:30;;;;;;;;;;;;;;;-140.72;100.00;57873.25;5088544;28;19920;-74
2023/12/09 02:17:05;;;;;;;;;;;;;;;-140.72;100.00;57848.88;5082650;28;20011;-73
2023/12/09 02:19:31;;;;;;;;;;;;;;;-140.72;100.00;57871.22;5083769;28;19941;-74
2023/12/09 02:21:57;;;;;;;;;;;;;;;-140.72;100.00;57903.75;5094639;28;19927;-74
2023/12/09 02:24:23;;;;;;;;;;;;;;;-140.72;100.00;57889.53;5094317;28;20378;-73
2023/12/09 02:26:49;;;;;;;;;;;;;;;-140.72;100.00;57893.59;5105848;28;20064;-73
2023/12/09 02:29:16;;;;;;;;;;;;;;;-140.72;100.00;57915.94;5090600;28;20269;-73
2023/12/09 02:31:42;;;;;;;;;;;;;;;-140.72;100.00;57930.16;5091420;28;20356;-73
2023/12/09 02:34:08;;;;;;;;;;;;;;;-140.72;100.00;57881.41;5098325;28;19927;-73
2023/12/09 02:36:35;;;;;;;;;;;;;;;-140.72;100.00;57913.91;5091765;28;19926;-74
2023/12/09 02:39:00;;;;;;;;;;;;;;;-140.72;100.00;57905.78;5097231;28;20320;-74
2023/12/09 02:41:27;;;;;;;;;;;;;;;-140.72;100.00;57920.00;5100833;28;19920;-74
2023/12/09 02:43:53;;;;;;;;;;;;;;;-140.72;100.00;57938.28;5104260;28;19920;-73
2023/12/09 02:46:18;;;;;;;;;;;;;;;-140.72;100.00;57946.41;5087421;28;19985;-74
2023/12/09 02:48:44;;;;;;;;;;;;;;;-140.72;100.00;57934.22;5077848;28;20393;-74
2023/12/09 02:51:09;;;;;;;;;;;;;;;-140.72;100.00;57932.19;5087902;28;20163;-74
2023/12/09 02:53:34;;;;;;;;;;;;;;;-140.72;100.00;57954.53;5091956;28;19967;-73
2023/12/09 02:56:00;;;;;;;;;;;;;;;-140.72;100.00;57972.84;5092910;28;19920;-73
2023/12/09 02:58:25;;;;;;;;;;;;;;;-140.72;100.00;57966.72;5104591;28;19926;-73
2023/12/09 03:00:50;;;;;;;;;;;;;;;-140.72;100.00;57980.97;5095539;28;19920;-73
2023/12/09 03:03:16;;;;;;;;;;;;;;;-140.72;100.00;57956.56;5102905;28;19920;-73
2023/12/09 03:05:41;;;;;;;;;;;;;;;-140.72;100.00;57958.59;5091878;28;20400;-73
2023/12/09 03:08:06;;;;;;;;;;;;;;;-140.72;100.00;57964.69;5093820;28;20294;-73
2023/12/09 03:10:31;;;;;;;;;;;;;;;-140.72;100.00;57958.59;5094115;28;20002;-73
2023/12/09 03:12:58;;;;;;;;;;;;;;;-140.72;100.00;58007.38;5098610;28;20273;-74
2023/12/09 03:15:23;;;;;;;;;;;;;;;-140.72;100.00;57958.59;5097735;28;19916;-74
2023/12/09 03:17:48;;;;;;;;;;;;;;;-140.72;100.00;57940.31;5093237;28;19927;-73
2023/12/09 03:20:13;;;;;;;;;;;;;;;-140.72;100.00;58015.50;5088313;28;19924;-73
2023/12/09 03:22:38;;;;;;;;;;;;;;;-140.72;100.00;58003.31;5091708;28;19916;-74
2023/12/09 03:25:04;;;;;;;;;;;;;;;-140.72;100.00;57962.66;5084333;28;20031;-73
2023/12/09 03:27:29;;;;;;;;;;;;;;;-140.72;100.00;58007.38;5098688;28;19927;-73
2023/12/09 03:29:54;;;;;;;;;;;;;;;-140.72;100.00;57995.19;5094411;28;19927;-73
2023/12/09 03:32:20;;;;;;;;;;;;;;;-140.72;100.00;58031.75;5100070;28;19998;-73
2023/12/09 03:34:45;;;;;;;;;;;;;;;-140.72;100.00;58060.22;5101208;28;19920;-73
2023/12/09 03:37:10;;;;;;;;;;;;;;;-140.72;100.00;58050.03;5089016;28;19936;-73
2023/12/09 03:39:35;;;;;;;;;;;;;;;-140.72;100.00;58092.72;5083608;28;19920;-73
2023/12/09 03:42:01;;;;;;;;;;;;;;;-140.72;100.00;58074.44;5096808;28;20015;-73
2023/12/09 03:44:26;;;;;;;;;;;;;;;-140.72;100.00;58098.81;5081704;28;19916;-73
2023/12/09 03:46:51;;;;;;;;;;;;;;;-140.72;100.00;58096.78;5089802;28;19927;-73
2023/12/09 03:49:16;;;;;;;;;;;;;;;-140.72;100.00;58115.06;5077735;28;19920;-73
2023/12/09 03:51:42;;;;;;;;;;;;;;;-140.72;100.00;58117.09;5093244;28;20924;-73
2023/12/09 03:54:07;;;;;;;;;;;;;;;-140.72;100.00;58127.25;5090212;28;20410;-73
2023/12/09 03:56:32;;;;;;;;;;;;;;;-140.72;100.00;58157.75;5093868;28;19929;-73
2023/12/09 03:58:57;;;;;;;;;;;;;;;-140.72;100.00;58167.91;5092521;28;19928;-73
2023/12/09 04:01:24;;;;;;;;;;;;;;;-140.72;100.00;58202.44;5101759;28;19920;-73
2023/12/09 04:03:50;;;;;;;;;;;;;;;-140.72;100.00;58178.06;5098130;28;20037;-73
2023/12/09 04:06:15;;;;;;;;;;;;;;;-140.72;100.00;58204.47;5102933;28;20332;-73
2023/12/09 04:08:40;;;;;;;;;;;;;;;-140.72;100.00;58204.47;5085619;28;20003;-73
2023/12/09 04:11:05;;;;;;;;;;;;;;;-140.72;100.00;58214.66;5099441;28;19928;-73
2023/12/09 04:13:31;;;;;;;;;;;;;;;-140.72;100.00;58214.66;5092066;28;19970;-74
2023/12/09 04:15:56;;;;;;;;;;;;;;;-140.72;100.00;58182.13;5081035;28;19917;-74
2023/12/09 04:18:21;;;;;;;;;;;;;;;-140.72;100.00;58196.34;5092536;28;20298;-74
2023/12/09 04:20:46;;;;;;;;;;;;;;;-140.72;100.00;58234.97;5090028;28;19928;-73
2023/12/09 04:23:12;;;;;;;;;;;;;;;-140.72;100.00;58234.97;5076229;28;19952;-74
2023/12/09 04:25:37;;;;;;;;;;;;;;;-140.72;100.00;58220.75;5094498;28;20002;-73
2023/12/09 04:28:02;;;;;;;;;;;;;;;-140.72;100.00;58265.44;5102807;28;19951;-73
2023/12/09 04:30:28;;;;;;;;;;;;;;;-140.72;100.00;58263.41;5086585;28;19928;-73
2023/12/09 04:32:53;;;;;;;;;;;;;;;-140.72;100.00;58226.84;5077085;28;19977;-73
2023/12/09 04:35:18;;;;;;;;;;;;;;;-140.72;100.00;58218.72;5083049;28;20010;-73
2023/12/09 04:37:44;;;;;;;;;;;;;;;-140.72;100.00;58232.94;5077571;28;19968;-74
2023/12/09 04:40:12;;;;;;;;;;;;;;;-140.72;100.00;58230.91;5093841;28;19923;-73
2023/12/09 04:42:37;;;;;;;;;;;;;;;-140.72;100.00;58232.94;5097335;28;19920;-74
2023/12/09 04:45:03;;;;;;;;;;;;;;;-140.72;100.00;58222.78;5098610;28;19941;-73
2023/12/09 04:47:29;;;;;;;;;;;;;;;-140.72;100.00;58239.03;5071188;28;19920;-73
2023/12/09 04:49:54;;;;;;;;;;;;;;;-140.72;100.00;58239.03;5091918;28;19989;-73
2023/12/09 04:52:19;;;;;;;;;;;;;;;-140.72;100.00;58251.22;5096610;28;20322;-73
2023/12/09 04:54:44;;;;;;;;;;;;;;;-140.72;100.00;58287.81;5093183;28;20345;-74
2023/12/09 04:57:10;;;;;;;;;;;;;;;-140.72;100.00;58253.25;5095439;28;19928;-74
2023/12/09 04:59:35;;;;;;;;;;;;;;;-140.72;100.00;58245.13;5097869;28;19920;-73
2023/12/09 05:02:00;;;;;;;;;;;;;;;-140.72;100.00;58224.81;5089846;28;19931;-73
2023/12/09 05:04:25;;;;;;;;;;;;;;;-140.72;100.00;58275.59;5091161;28;19920;-74
2023/12/09 05:06:50;;;;;;;;;;;;;;;-140.72;100.00;58277.63;5087333;28;19924;-74
2023/12/09 05:09:16;;;;;;;;;;;;;;;-140.72;100.00;58271.53;5103020;28;19981;-74
2023/12/09 05:11:41;;;;;;;;;;;;;;;-140.72;100.00;58253.25;5092315;28;19956;-73
2023/12/09 05:14:06;;;;;;;;;;;;;;;-140.72;100.00;58218.72;5092880;28;20294;-73
2023/12/09 05:16:34;;;;;;;;;;;;;;;-140.72;100.00;58249.19;5091778;28;19944;-74
2023/12/09 05:19:00;;;;;;;;;;;;;;;-140.72;100.00;58253.25;5067643;28;19939;-73
2023/12/09 05:21:26;;;;;;;;;;;;;;;-140.72;100.00;58212.63;5072957;28;19916;-74
2023/12/09 05:23:52;;;;;;;;;;;;;;;-140.72;100.00;58232.94;5065900;28;19916;-75
2023/12/09 05:26:21;;;;;;;;;;;;;;;-140.72;100.00;58247.16;5078247;28;20435;-74
2023/12/09 05:28:47;;;;;;;;;;;;;;;-140.72;100.00;58255.28;5073238;28;19916;-73
2023/12/09 05:31:13;;;;;;;;;;;;;;;-140.72;100.00;58188.22;5077028;28;20011;-75
2023/12/09 05:33:39;;;;;;;;;;;;;;;-140.72;100.00;58206.50;5066449;28;20002;-74
2023/12/09 05:36:04;;;;;;;;;;;;;;;-140.72;100.00;58226.84;5088940;28;19920;-76
2023/12/09 05:38:30;;;;;;;;;;;;;;;-140.72;100.00;58234.97;5084354;28;19985;-74
2023/12/09 05:40:55;;;;;;;;;;;;;;;-140.72;100.00;58188.22;5072784;28;19970;-74
2023/12/09 05:43:20;;;;;;;;;;;;;;;-140.72;100.00;58206.50;5085327;28;19916;-73
2023/12/09 05:45:46;;;;;;;;;;;;;;;-140.72;100.00;58220.75;5089552;28;19921;-75
2023/12/09 05:48:11;;;;;;;;;;;;;;;-140.72;100.00;58251.22;5084670;28;19916;-73
2023/12/09 05:50:36;;;;;;;;;;;;;;;-140.72;100.00;58291.88;5096355;28;20015;-73
2023/12/09 05:53:01;;;;;;;;;;;;;;;-140.72;100.00;58265.44;5096127;28;20377;-72
2023/12/09 05:55:27;;;;;;;;;;;;;;;-140.72;100.00;58275.59;5081694;28;19966;-75
2023/12/09 05:57:52;;;;;;;;;;;;;;;-140.72;100.00;58239.03;5083742;28;20062;-72
2023/12/09 06:00:17;;;;;;;;;;;;;;;-140.72;100.00;58267.47;5058397;28;19920;-75
2023/12/09 06:02:42;;;;;;;;;;;;;;;-140.72;100.00;58263.41;5097911;28;19919;-77
2023/12/09 06:05:08;;;;;;;;;;;;;;;-140.72;100.00;58287.81;5062387;28;19926;-73
2023/12/09 06:07:33;;;;;;;;;;;;;;;-140.72;100.00;58312.19;5092805;28;19995;-74
2023/12/09 06:09:59;;;;;;;;;;;;;;;-140.72;100.00;58348.75;5089891;28;20054;-74
2023/12/09 06:12:24;;;;;;;;;;;;;;;-140.72;100.00;58330.47;5091723;28;19978;-74
2023/12/09 06:14:49;;;;;;;;;;;;;;;-140.72;100.00;58300.00;5096318;28;19916;-73
2023/12/09 06:17:14;;;;;;;;;;;;;;;-140.72;100.00;58336.56;5093319;28;19951;-74
2023/12/09 06:19:40;;;;;;;;;;;;;;;-140.72;100.00;58328.44;5096928;28;19959;-73
2023/12/09 06:22:06;;;;;;;;;;;;;;;-140.72;100.00;58344.69;5081974;28;19927;-73
2023/12/09 06:24:31;;;;;;;;;;;;;;;-140.72;100.00;58363.00;5088764;28;19920;-74
2023/12/09 06:26:56;;;;;;;;;;;;;;;-140.72;100.00;58348.75;5087163;28;19966;-76
2023/12/09 06:29:21;;;;;;;;;;;;;;;-140.72;100.00;58377.22;5093025;28;20008;-74
2023/12/09 06:31:47;;;;;;;;;;;;;;;-140.72;100.00;58375.19;5085387;28;19923;-75
2023/12/09 06:34:12;;;;;;;;;;;;;;;-140.72;100.00;58365.03;5093866;28;19920;-74
2023/12/09 06:36:37;;;;;;;;;;;;;;;-140.72;100.00;58316.25;5108257;28;19938;-73
2023/12/09 06:39:03;;;;;;;;;;;;;;;-140.72;100.00;58312.19;5097547;28;20018;-74
2023/12/09 06:41:28;;;;;;;;;;;;;;;-140.72;100.00;58275.59;5089966;28;19935;-73
2023/12/09 06:43:53;;;;;;;;;;;;;;;-140.72;100.00;58302.03;5089808;28;19928;-74
2023/12/09 06:46:19;;;;;;;;;;;;;;;-140.72;100.00;58291.88;5093858;28;20278;-73
2023/12/09 06:48:45;;;;;;;;;;;;;;;-140.72;100.00;58293.91;5100177;28;19920;-74
2023/12/09 06:51:16;;;;;;;;;;;;;;;-140.72;100.00;58283.75;5091457;28;20385;-76
2023/12/09 06:53:42;;;;;;;;;;;;;;;-140.72;100.00;58251.22;5090263;28;20026;-74
2023/12/09 06:56:08;;;;;;;;;;;;;;;-140.72;100.00;58220.75;5097127;28;19920;-72
2023/12/09 06:58:33;;;;;;;;;;;;;;;-140.72;100.00;58255.28;5092238;28;20437;-75
2023/12/09 07:01:01;;;;;;;;;;;;;;;-140.72;100.00;58239.03;5091878;28;20258;-75
2023/12/09 07:03:27;;;;;;;;;;;;;;;-140.72;100.00;58186.19;5091103;28;19924;-76
2023/12/09 07:05:52;;;;;;;;;;;;;;;-140.72;100.00;58232.94;5105698;28;20297;-76
2023/12/09 07:08:17;;;;;;;;;;;;;;;-140.72;100.00;58182.13;5089459;28;19923;-74
2023/12/09 07:10:43;;;;;;;;;;;;;;;-140.72;100.00;58161.81;5066940;28;19987;-74
2023/12/09 07:13:08;;;;;;;;;;;;;;;-140.72;100.00;58145.56;5089701;28;19920;-74
2023/12/09 07:15:34;;;;;;;;;;;;;;;-140.72;100.00;58133.38;5097566;28;20370;-74
2023/12/09 07:17:59;;;;;;;;;;;;;;;-140.72;100.00;58096.78;5095009;28;20021;-74
2023/12/09 07:20:24;;;;;;;;;;;;;;;-140.72;100.00;58082.56;5095685;28;19920;-74
2023/12/09 07:22:49;;;;;;;;;;;;;;;-140.72;100.00;58039.88;5104652;28;19939;-74
2023/12/09 07:25:14;;;;;;;;;;;;;;;-140.72;100.00;58066.31;5102449;28;19957;-74
2023/12/09 07:27:40;;;;;;;;;;;;;;;-140.72;100.00;58056.16;5096164;28;19920;-73
2023/12/09 07:30:05;;;;;;;;;;;;;;;-140.72;100.00;58015.50;5098547;28;20276;-74
2023/12/09 07:32:31;;;;;;;;;;;;;;;-140.72;100.00;57978.94;5100973;28;20440;-74
2023/12/09 07:34:56;;;;;;;;;;;;;;;-140.72;100.00;57958.59;5095929;28;19920;-74
2023/12/09 07:37:22;;;;;;;;;;;;;;;-140.72;100.00;57907.81;5103829;28;19924;-72
2023/12/09 07:39:47;;;;;;;;;;;;;;;-140.72;100.00;57895.63;5103733;28;20007;-74
2023/12/09 07:42:13;;;;;;;;;;;;;;;-140.72;100.00;57863.09;5101687;28;19989;-74
2023/12/09 07:44:38;;;;;;;;;;;;;;;-140.72;100.00;57840.75;5097505;28;19928;-73
2023/12/09 07:47:03;;;;;;;;;;;;;;;-140.72;100.00;57804.19;5091224;28;19924;-74
2023/12/09 07:49:28;;;;;;;;;;;;;;;-140.72;100.00;57720.88;5082632;28;19980;-74
2023/12/09 07:51:54;;;;;;;;;;;;;;;-140.72;100.00;57704.63;5104690;28;19923;-73
2023/12/09 07:54:19;;;;;;;;;;;;;;;-140.72;100.00;57684.31;5100275;28;19920;-74
2023/12/09 07:56:44;;;;;;;;;;;;;;;-140.72;100.00;57645.69;5100961;28;19973;-75
2023/12/09 07:59:10;;;;;;;;;;;;;;;-140.72;100.00;57647.72;5104729;28;19950;-74
2023/12/09 08:01:36;;;;;;;;;;;;;;;-140.72;100.00;57653.81;5100374;28;19928;-74
2023/12/09 08:04:01;;;;;;;;;;;;;;;-140.72;100.00;57576.63;5099389;28;19950;-75
2023/12/09 08:06:26;;;;;;;;;;;;;;;-140.72;100.00;57572.56;5088044;28;19935;-74
2023/12/09 08:08:51;;;;;;;;;;;;;;;-140.72;100.00;57554.28;5100889;28;19946;-74
2023/12/09 08:11:18;;;;;;;;;;;;;;;-140.72;100.00;57542.06;5099192;28;19919;-74
2023/12/09 08:13:44;;;;;;;;;;;;;;;-140.72;100.00;57505.50;5082907;28;20147;-74
2023/12/09 08:16:09;;;;;;;;;;;;;;;-140.72;100.00;57505.50;5094364;28;20007;-73
2023/12/09 08:18:34;;;;;;;;;;;;;;;-140.72;100.00;57458.78;5100625;28;20011;-74
2023/12/09 08:20:59;;;;;;;;;;;;;;;-140.72;100.00;57393.75;5078984;28;19955;-74
2023/12/09 08:23:24;;;;;;;;;;;;;;;-140.72;100.00;57434.41;5098195;28;19920;-74
2023/12/09 08:25:50;;;;;;;;;;;;;;;-140.72;100.00;57347.03;5099852;28;19960;-74
2023/12/09 08:28:15;;;;;;;;;;;;;;;-140.72;100.00;57332.81;5075902;28;19920;-75
2023/12/09 08:30:40;;;;;;;;;;;;;;;-140.72;100.00;57284.06;5085300;28;19919;-76
2023/12/09 08:33:05;;;;;;;;;;;;;;;-140.72;100.00;57296.25;5099273;28;19920;-76
2023/12/09 08:35:31;;;;;;;;;;;;;;;-140.72;100.00;57235.28;5081134;28;19924;-77
2023/12/09 08:37:56;;;;;;;;;;;;;;;-140.72;100.00;57235.28;5084677;28;19927;-76
2023/12/09 08:40:22;;;;;;;;;;;;;;;-140.72;100.00;57194.66;5083509;28;19924;-74
2023/12/09 08:42:47;;;;;;;;;;;;;;;-140.72;100.00;57172.31;5094933;28;19927;-74
2023/12/09 08:45:13;;;;;;;;;;;;;;;-140.72;100.00;57145.91;5089343;28;19967;-75
2023/12/09 08:47:39;;;;;;;;;;;;;;;-140.72;100.00;57070.75;5085514;28;19931;-75
2023/12/09 08:50:04;;;;;;;;;;;;;;;-140.72;100.00;57093.09;5092245;28;20022;-74
2023/12/09 08:52:31;;;;;;;;;;;;;;;-140.72;100.00;57068.72;5082313;28;19980;-74
2023/12/09 08:54:56;;;;;;;;;;;;;;;-140.72;100.00;57026.03;5060264;28;19920;-74
2023/12/09 08:57:22;;;;;;;;;;;;;;;-140.72;100.00;57009.78;5090883;28;19920;-74
2023/12/09 08:59:47;;;;;;;;;;;;;;;-140.72;100.00;57040.25;5104342;28;19942;-74
2023/12/09 09:02:12;;;;;;;;;;;;;;;-140.72;100.00;57021.97;5084829;28;19916;-75
2023/12/09 09:04:37;;;;;;;;;;;;;;;-140.72;100.00;56963.06;5109034;28;19927;-75
2023/12/09 09:07:03;;;;;;;;;;;;;;;-140.72;100.00;56963.06;5111727;28;19951;-74
2023/12/09 09:09:28;;;;;;;;;;;;;;;-140.72;100.00;56914.31;5096319;28;19951;-74
2023/12/09 09:11:53;;;;;;;;;;;;;;;-140.72;100.00;56898.06;5107713;28;20357;-74
2023/12/09 09:14:18;;;;;;;;;;;;;;;-140.72;100.00;56894.00;5103952;28;19928;-74
2023/12/09 09:16:43;;;;;;;;;;;;;;;-140.72;100.00;56831.03;5085724;28;19985;-74
2023/12/09 09:19:09;;;;;;;;;;;;;;;-140.72;100.00;56784.31;5094558;28;19932;-74
2023/12/09 09:21:34;;;;;;;;;;;;;;;-140.72;100.00;56782.28;5086064;28;19931;-75
2023/12/09 09:24:00;;;;;;;;;;;;;;;-140.72;100.00;56751.81;5092167;28;19958;-75
2023/12/09 09:26:25;;;;;;;;;;;;;;;-140.72;100.00;56739.63;5097032;28;19916;-73
2023/12/09 09:28:50;;;;;;;;;;;;;;;-140.72;100.00;56680.72;5075379;28;19920;-74
2023/12/09 09:31:15;;;;;;;;;;;;;;;-140.72;100.00;56707.13;5094908;28;19931;-74
2023/12/09 09:33:41;;;;;;;;;;;;;;;-140.72;100.00;56617.72;5100078;28;19916;-74
2023/12/09 09:36:07;;;;;;;;;;;;;;;-140.72;100.00;56642.09;5083865;28;19969;-74
2023/12/09 09:38:32;;;;;;;;;;;;;;;-140.72;100.00;56638.03;5090294;28;19917;-74
2023/12/09 09:40:58;;;;;;;;;;;;;;;-140.72;100.00;56619.75;5087880;28;20384;-74
2023/12/09 09:43:24;;;;;;;;;;;;;;;-140.72;100.00;56577.09;5067513;28;19969;-75
2023/12/09 09:45:52;;;;;;;;;;;;;;;-140.72;100.00;56573.03;5075831;28;19926;-74
2023/12/09 09:48:18;;;;;;;;;;;;;;;-140.72;100.00;56544.59;5073681;28;19923;-74
2023/12/09 09:50:51;;;;;;;;;;;;;;;-140.72;100.00;56518.19;5103952;28;20310;-74
2023/12/09 09:53:20;;;;;;;;;;;;;;;-140.72;100.00;56522.25;5097023;28;20019;-74
2023/12/09 09:55:46;;;;;;;;;;;;;;;-140.72;100.00;56481.63;5053911;28;19996;-74
2023/12/09 09:58:12;;;;;;;;;;;;;;;-140.72;100.00;56485.69;5092746;28;19957;-74
2023/12/09 10:00:38;;;;;;;;;;;;;;;-140.72;100.00;56392.28;5101299;28;19920;-74
2023/12/09 10:03:04;;;;;;;;;;;;;;;-140.72;100.00;56347.59;5103938;28;19928;-74
2023/12/09 10:05:29;;;;;;;;;;;;;;;-140.72;100.00;56315.09;5095117;28;19931;-74
2023/12/09 10:07:55;;;;;;;;;;;;;;;-140.72;100.00;56248.06;5098058;28;19936;-75
2023/12/09 10:10:20;;;;;;;;;;;;;;;-140.72;100.00;56239.94;5097374;28;19947;-74
2023/12/09 10:12:45;;;;;;;;;;;;;;;-140.72;100.00;56237.91;5085445;28;19917;-75
2023/12/09 10:15:11;;;;;;;;;;;;;;;-140.72;100.00;56189.16;5092524;28;20274;-75
2023/12/09 10:17:36;;;;;;;;;;;;;;;-140.72;100.00;56181.03;5080652;28;20008;-74
2023/12/09 10:20:05;;;;;;;;;;;;;;;-140.72;100.00;56146.50;5091318;28;19985;-75
2023/12/09 10:22:31;;;;;;;;;;;;;;;-140.72;100.00;56160.72;5095165;28;19919;-74
2023/12/09 10:24:56;;;;;;;;;;;;;;;-140.72;100.00;56154.63;5092378;28;19970;-75
2023/12/09 10:27:22;;;;;;;;;;;;;;;-140.72;100.00;56146.50;5096897;28;20497;-74
2023/12/09 10:29:48;;;;;;;;;;;;;;;-140.72;100.00;56146.50;5072879;28;20000;-74
2023/12/09 10:32:13;;;;;;;;;;;;;;;-140.72;100.00;56156.66;5091606;28;20302;-75
2023/12/09 10:34:39;;;;;;;;;;;;;;;-140.72;100.00;56183.06;5092392;28;19916;-74
2023/12/09 10:37:07;;;;;;;;;;;;;;;-140.72;100.00;56231.81;5094201;28;20384;-74
2023/12/09 10:39:33;;;;;;;;;;;;;;;-140.72;100.00;56274.47;5105241;28;19965;-75
2023/12/09 10:41:59;;;;;;;;;;;;;;;-140.72;100.00;56246.03;5098242;28;19920;-75
2023/12/09 10:44:24;;;;;;;;;;;;;;;-140.72;100.00;56284.63;5096800;28;19920;-74
2023/12/09 10:46:49;;;;;;;;;;;;;;;-140.72;100.00;56313.06;5093646;28;19923;-74
2023/12/09 10:49:14;;;;;;;;;;;;;;;-140.72;100.00;56319.16;5108437;28;19928;-75
2023/12/09 10:51:40;;;;;;;;;;;;;;;-140.72;100.00;56337.44;5092704;28;19919;-73
2023/12/09 10:54:05;;;;;;;;;;;;;;;-140.72;100.00;56406.50;5093278;28;19936;-74
2023/12/09 10:56:30;;;;;;;;;;;;;;;-140.72;100.00;56406.50;5092436;28;20001;-75
2023/12/09 10:58:56;;;;;;;;;;;;;;;-140.72;100.00;56396.34;5104414;28;19924;-73
2023/12/09 11:01:22;;;;;;;;;;;;;;;-140.72;100.00;56457.25;5105759;28;19920;-73
2023/12/09 11:03:47;;;;;;;;;;;;;;;-140.72;100.00;56536.47;5096205;28;19942;-72
2023/12/09 11:06:13;;;;;;;;;;;;;;;-140.72;100.00;56562.88;5092773;28;19924;-72
2023/12/09 11:08:39;;;;;;;;;;;;;;;-140.72;100.00;56603.53;5090314;28;20370;-73
2023/12/09 11:11:07;;;;;;;;;;;;;;;-140.72;100.00;56654.31;5090701;28;19953;-73
2023/12/09 11:13:34;;;;;;;;;;;;;;;-140.72;100.00;56729.47;5084003;28;20271;-73
2023/12/09 11:16:12;;;;;;;;;;;;;;;-140.72;100.00;56727.44;5083301;28;19916;-72
2023/12/09 11:18:47;;;;;;;;;;;;;;;-140.72;100.00;56790.41;5088876;28;19924;-73
2023/12/09 11:21:13;;;;;;;;;;;;;;;-140.72;100.00;56816.81;5085094;28;19932;-73
2023/12/09 11:23:42;;;;;;;;;;;;;;;-140.72;100.00;56877.75;5085125;28;19935;-75
2023/12/09 11:26:12;;;;;;;;;;;;;;;-140.72;100.00;56910.25;5076183;28;19920;-73
2023/12/09 11:28:37;;;;;;;;;;;;;;;-140.72;100.00;56983.38;5088194;28;20297;-72
2023/12/09 11:31:03;;;;;;;;;;;;;;;-140.72;100.00;57042.28;5098287;28;19932;-74
2023/12/09 11:33:28;;;;;;;;;;;;;;;-140.72;100.00;57072.78;5093227;28;19920;-73
2023/12/09 11:35:55;;;;;;;;;;;;;;;-140.72;100.00;57113.41;5104819;28;19924;-76
2023/12/09 11:38:21;;;;;;;;;;;;;;;-140.72;100.00;57133.72;5099208;28;19920;-78
2023/12/09 11:40:47;;;;;;;;;;;;;;;-140.72;100.00;57196.69;5082745;28;20348;-75
2023/12/09 11:43:12;;;;;;;;;;;;;;;-140.72;100.00;57223.09;5083114;28;19955;-73
2023/12/09 11:45:38;;;;;;;;;;;;;;;-140.72;100.00;57296.25;5083172;28;19965;-74
2023/12/09 11:48:04;;;;;;;;;;;;;;;-140.72;100.00;57330.78;5097508;28;19923;-75
2023/12/09 11:50:29;;;;;;;;;;;;;;;-140.72;100.00;57324.69;5099258;28;20344;-75
2023/12/09 11:52:54;;;;;;;;;;;;;;;-140.72;100.00;57342.97;5107217;28;19982;-75
2023/12/09 11:55:19;;;;;;;;;;;;;;;-140.72;100.00;57345.00;5094478;28;19935;-74
2023/12/09 11:57:46;;;;;;;;;;;;;;;-140.72;100.00;57361.25;5105354;28;20395;-75
2023/12/09 12:00:11;;;;;;;;;;;;;;;-140.72;100.00;57367.34;5101408;28;19928;-75
2023/12/09 12:02:38;;;;;;;;;;;;;;;-140.72;100.00;57334.84;5107095;28;19926;-76
2023/12/09 12:05:04;;;;;;;;;;;;;;;-140.72;100.00;57385.63;5095642;28;19966;-77
2023/12/09 12:07:29;;;;;;;;;;;;;;;-140.72;100.00;57412.03;5081522;28;19920;-74
2023/12/09 12:09:54;;;;;;;;;;;;;;;-140.72;100.00;57410.00;5096103;28;19931;-73